createdAt,value
2022-10-24T00:01:13.828Z,1.02
2022-10-24T00:03:40.759Z,0.57
2022-10-24T00:06:10.203Z,0.80
2022-10-24T00:08:38.257Z,0.60
2022-10-24T00:11:18.306Z,0.75
2022-10-24T00:13:45.285Z,0.70
2022-10-24T00:16:12.740Z,1.33
2022-10-24T00:18:40.186Z,0.75
2022-10-24T00:21:07.420Z,1.42
2022-10-24T00:23:34.752Z,0.63
2022-10-24T00:26:01.931Z,0.65
2022-10-24T00:28:30.972Z,0.70
2022-10-24T00:30:58.479Z,0.60
2022-10-24T00:33:25.861Z,1.05
2022-10-24T00:35:52.744Z,0.60
2022-10-24T00:38:19.660Z,0.50
2022-10-24T00:40:46.443Z,0.80
2022-10-24T00:43:16.636Z,0.88
2022-10-24T00:46:00.363Z,0.68
2022-10-24T00:48:28.910Z,0.63
2022-10-24T00:51:27.475Z,0.65
2022-10-24T00:54:02.671Z,0.70
2022-10-24T00:56:34.628Z,0.90
2022-10-24T00:59:03.878Z,0.80
2022-10-24T01:01:31.421Z,0.93
2022-10-24T01:03:58.216Z,0.73
2022-10-24T01:06:33.960Z,0.70
2022-10-24T01:09:24.414Z,0.75
2022-10-24T01:12:25.347Z,0.60
2022-10-24T01:15:20.068Z,0.80
2022-10-24T01:18:11.782Z,1.08
2022-10-24T01:21:24.661Z,1.08
2022-10-24T01:24:06.732Z,1.55
2022-10-24T01:26:49.259Z,1.05
2022-10-24T01:29:27.890Z,1.08
2022-10-24T01:32:33.030Z,1.00
2022-10-24T01:35:02.653Z,0.80
2022-10-24T01:37:55.445Z,1.23
2022-10-24T01:40:30.588Z,1.70
2022-10-24T01:43:03.035Z,1.38
2022-10-24T01:45:34.623Z,1.83
2022-10-24T01:48:05.200Z,1.00
2022-10-24T01:50:35.336Z,1.52
2022-10-24T01:53:03.716Z,0.90
2022-10-24T01:55:34.504Z,0.82
2022-10-24T01:58:01.481Z,1.83
2022-10-24T02:00:28.435Z,2.33
2022-10-24T02:03:00.837Z,1.60
2022-10-24T02:05:33.851Z,1.67
2022-10-24T02:08:05.860Z,0.95
2022-10-24T02:10:45.123Z,1.30
2022-10-24T02:13:17.204Z,1.10
2022-10-24T02:15:50.437Z,1.10
2022-10-24T02:18:17.345Z,1.25
2022-10-24T02:20:55.134Z,1.00
2022-10-24T02:23:45.442Z,0.85
2022-10-24T02:26:26.899Z,1.42
2022-10-24T02:28:58.626Z,1.00
2022-10-24T02:31:30.777Z,0.80
2022-10-24T02:33:58.782Z,1.55
2022-10-24T02:36:28.657Z,1.50
2022-10-24T02:38:57.437Z,1.17
2022-10-24T02:41:29.688Z,1.23
2022-10-24T02:43:58.394Z,1.40
2022-10-24T02:46:26.323Z,1.20
2022-10-24T02:49:01.940Z,1.55
2022-10-24T02:51:32.812Z,1.00
2022-10-24T02:54:01.476Z,1.52
2022-10-24T02:56:29.039Z,0.93
2022-10-24T02:58:55.837Z,1.13
2022-10-24T03:01:22.827Z,0.90
2022-10-24T03:03:49.897Z,0.93
2022-10-24T03:06:16.787Z,1.10
2022-10-24T03:08:43.607Z,0.95
2022-10-24T03:11:10.372Z,1.00
2022-10-24T03:13:37.298Z,0.90
2022-10-24T03:16:06.729Z,1.50
2022-10-24T03:18:35.863Z,1.25
2022-10-24T03:21:02.987Z,1.33
2022-10-24T03:23:30.172Z,1.23
2022-10-24T03:25:58.516Z,1.00
2022-10-24T03:28:25.850Z,0.70
2022-10-24T03:30:53.321Z,1.10
2022-10-24T03:33:20.324Z,1.30
2022-10-24T03:35:47.051Z,1.50
2022-10-24T03:38:13.853Z,1.45
2022-10-24T03:40:40.896Z,1.35
2022-10-24T03:43:07.681Z,1.10
2022-10-24T03:45:34.537Z,1.35
2022-10-24T03:48:01.733Z,1.40
2022-10-24T03:50:28.467Z,0.85
2022-10-24T03:52:55.270Z,1.58
2022-10-24T03:55:22.611Z,1.10
2022-10-24T03:57:49.368Z,1.30
2022-10-24T04:00:18.526Z,0.80
2022-10-24T04:02:45.689Z,1.40
2022-10-24T04:05:13.765Z,0.95
2022-10-24T04:07:40.553Z,0.73
2022-10-24T04:10:08.020Z,0.50
2022-10-24T04:12:34.851Z,0.90
2022-10-24T04:15:04.708Z,1.05
2022-10-24T04:17:32.307Z,0.80
2022-10-24T04:19:59.094Z,0.68
2022-10-24T04:22:25.938Z,0.70
2022-10-24T04:24:52.672Z,0.57
2022-10-24T04:27:19.526Z,0.32
2022-10-24T04:29:46.454Z,0.85
2022-10-24T04:32:13.488Z,0.60
2022-10-24T04:34:40.291Z,1.38
2022-10-24T04:37:07.096Z,0.90
2022-10-24T04:39:33.976Z,0.93
2022-10-24T04:42:00.936Z,0.60
2022-10-24T04:44:27.799Z,0.63
2022-10-24T04:46:54.659Z,0.68
2022-10-24T04:49:21.659Z,0.73
2022-10-24T04:51:48.481Z,0.95
2022-10-24T04:54:15.302Z,0.95
2022-10-24T04:56:42.149Z,0.80
2022-10-24T04:59:08.966Z,1.25
2022-10-24T05:01:35.822Z,1.23
2022-10-24T05:06:34.409Z,0.55
2022-10-24T05:09:01.160Z,0.85
2022-10-24T05:11:27.994Z,0.65
2022-10-24T05:13:54.779Z,1.63
2022-10-24T05:16:21.935Z,0.90
2022-10-24T05:18:48.901Z,0.93
2022-10-24T05:21:16.044Z,0.32
2022-10-24T05:23:42.859Z,0.70
2022-10-24T05:26:09.781Z,0.50
2022-10-24T05:28:36.756Z,1.20
2022-10-24T05:31:03.633Z,1.33
2022-10-24T05:33:30.537Z,0.80
2022-10-24T05:35:58.056Z,0.50
2022-10-24T05:38:24.941Z,1.05
2022-10-24T05:40:51.826Z,0.75
2022-10-24T05:43:18.623Z,0.90
2022-10-24T05:45:48.531Z,0.60
2022-10-24T05:48:16.159Z,0.60
2022-10-24T05:50:43.435Z,0.73
2022-10-24T05:53:10.307Z,0.70
2022-10-24T05:55:37.089Z,0.50
2022-10-24T05:58:03.928Z,0.55
2022-10-24T06:00:33.846Z,0.50
2022-10-24T06:03:01.863Z,0.65
2022-10-24T06:05:29.494Z,0.65
2022-10-24T06:07:56.256Z,0.60
2022-10-24T06:10:23.243Z,0.98
2022-10-24T06:12:50.102Z,0.63
2022-10-24T06:15:17.057Z,0.88
2022-10-24T06:17:43.936Z,0.65
2022-10-24T06:20:11.226Z,0.52
2022-10-24T06:22:38.273Z,0.88
2022-10-24T06:25:05.551Z,0.52
2022-10-24T06:27:32.767Z,0.50
2022-10-24T06:29:59.537Z,0.70
2022-10-24T06:32:26.378Z,0.50
2022-10-24T06:34:53.260Z,1.20
2022-10-24T06:37:20.165Z,0.82
2022-10-24T06:39:47.101Z,0.63
2022-10-24T06:42:14.213Z,0.70
2022-10-24T06:44:41.003Z,0.70
2022-10-24T06:47:07.882Z,0.95
2022-10-24T06:49:34.717Z,0.45
2022-10-24T06:52:01.644Z,0.52
2022-10-24T06:54:30.326Z,1.23
2022-10-24T06:56:57.696Z,0.90
2022-10-24T06:59:24.656Z,0.80
2022-10-24T07:01:51.487Z,0.60
2022-10-24T07:04:18.372Z,0.70
2022-10-24T07:06:45.435Z,0.60
2022-10-24T07:09:15.225Z,0.68
2022-10-24T07:11:43.380Z,1.00
2022-10-24T07:14:10.760Z,0.93
2022-10-24T07:16:37.755Z,0.40
2022-10-24T07:19:05.705Z,1.08
2022-10-24T07:21:33.336Z,0.68
2022-10-24T07:24:00.855Z,0.70
2022-10-24T07:26:29.447Z,0.55
2022-10-24T07:29:04.132Z,0.63
2022-10-24T07:31:33.631Z,0.60
2022-10-24T07:34:02.460Z,0.40
2022-10-24T07:36:30.652Z,0.70
2022-10-24T07:38:59.339Z,0.82
2022-10-24T07:41:28.851Z,1.02
2022-10-24T07:43:57.456Z,0.90
2022-10-24T07:46:24.835Z,0.70
2022-10-24T07:48:53.300Z,0.50
2022-10-24T07:51:21.165Z,0.50
2022-10-24T07:53:48.088Z,0.50
2022-10-24T07:56:16.470Z,0.50
2022-10-24T07:58:44.821Z,0.70
2022-10-24T08:01:17.686Z,0.65
2022-10-24T08:03:44.785Z,0.50
2022-10-24T08:06:15.084Z,0.30
2022-10-24T08:08:42.337Z,0.75
2022-10-24T08:11:21.881Z,0.43
2022-10-24T08:13:49.980Z,0.50
2022-10-24T08:16:18.589Z,0.30
2022-10-24T08:18:45.402Z,0.50
2022-10-24T08:21:14.212Z,0.45
2022-10-24T08:23:44.051Z,0.52
2022-10-24T08:26:14.665Z,1.00
2022-10-24T08:28:42.279Z,0.90
2022-10-24T08:31:13.707Z,0.77
2022-10-24T08:33:40.801Z,0.60
2022-10-24T08:36:30.527Z,0.70
2022-10-24T08:38:58.392Z,1.27
2022-10-24T08:41:38.133Z,0.32
2022-10-24T08:44:30.967Z,0.60
2022-10-24T08:47:18.213Z,1.08
2022-10-24T08:49:57.274Z,0.73
2022-10-24T08:52:45.475Z,0.70
2022-10-24T08:55:30.861Z,1.05
2022-10-24T08:58:05.251Z,1.17
2022-10-24T09:00:38.436Z,0.80
2022-10-24T09:03:26.577Z,1.17
2022-10-24T09:06:07.923Z,1.10
2022-10-24T09:08:49.941Z,0.95
2022-10-24T09:11:43.788Z,0.52
2022-10-24T09:14:20.356Z,0.73
2022-10-24T09:16:53.452Z,0.90
2022-10-24T09:19:23.288Z,0.50
2022-10-24T09:21:52.126Z,0.38
2022-10-24T09:24:39.480Z,0.93
2022-10-24T09:27:29.878Z,0.90
2022-10-24T09:29:58.227Z,1.10
2022-10-24T09:32:27.935Z,0.57
2022-10-24T09:34:55.894Z,0.28
2022-10-24T09:37:47.637Z,0.63
2022-10-24T09:40:14.548Z,0.43
2022-10-24T09:42:50.234Z,0.30
2022-10-24T09:45:37.446Z,0.60
2022-10-24T09:48:29.217Z,0.30
2022-10-24T09:50:58.993Z,0.60
2022-10-24T09:53:39.646Z,0.73
2022-10-24T09:56:16.457Z,0.68
2022-10-24T09:58:43.536Z,0.50
2022-10-24T10:01:16.735Z,0.73
2022-10-24T10:03:59.648Z,0.88
2022-10-24T10:06:26.532Z,0.45
2022-10-24T10:08:58.376Z,0.70
2022-10-24T10:11:35.021Z,0.32
2022-10-24T10:14:16.021Z,0.85
2022-10-24T10:16:42.905Z,0.60
2022-10-24T10:19:17.997Z,0.60
2022-10-24T10:21:54.744Z,0.45
2022-10-24T10:24:42.183Z,0.57
2022-10-24T10:27:32.934Z,0.20
2022-10-24T10:30:17.061Z,0.68
2022-10-24T10:33:22.385Z,0.30
2022-10-24T10:36:01.033Z,0.90
2022-10-24T10:38:43.994Z,0.88
2022-10-24T10:41:34.136Z,0.47
2022-10-24T10:44:25.924Z,0.30
2022-10-24T10:47:01.797Z,0.70
2022-10-24T10:49:30.699Z,0.55
2022-10-24T10:51:58.847Z,0.70
2022-10-24T10:54:38.012Z,0.47
2022-10-24T10:57:19.602Z,0.50
2022-10-24T11:00:07.773Z,0.82
2022-10-24T11:02:40.508Z,0.45
2022-10-24T11:05:25.245Z,0.30
2022-10-24T11:08:19.167Z,0.50
2022-10-24T11:11:11.547Z,0.47
2022-10-24T11:13:57.398Z,0.40
2022-10-24T11:16:28.977Z,0.30
2022-10-24T11:19:02.642Z,0.40
2022-10-24T11:21:32.943Z,0.60
2022-10-24T11:24:17.007Z,0.30
2022-10-24T11:26:46.775Z,1.00
2022-10-24T11:29:55.400Z,0.15
2022-10-24T11:32:40.913Z,0.63
2022-10-24T11:35:10.561Z,1.08
2022-10-24T11:37:41.568Z,0.55
2022-10-24T11:40:14.612Z,0.32
2022-10-24T11:42:47.607Z,0.52
2022-10-24T11:45:26.382Z,0.35
2022-10-24T11:48:03.193Z,0.40
2022-10-24T11:50:50.596Z,0.30
2022-10-24T11:53:31.227Z,0.65
2022-10-24T11:56:37.186Z,0.70
2022-10-24T11:59:06.399Z,0.30
2022-10-24T12:01:33.123Z,0.50
2022-10-24T12:04:05.534Z,0.28
2022-10-24T12:06:47.360Z,0.80
2022-10-24T12:09:16.968Z,0.50
2022-10-24T12:11:59.923Z,0.50
2022-10-24T12:14:35.713Z,1.13
2022-10-24T12:17:17.763Z,1.55
2022-10-24T12:19:45.911Z,0.73
2022-10-24T12:22:21.856Z,0.95
2022-10-24T12:24:49.645Z,0.47
2022-10-24T12:27:35.605Z,0.50
2022-10-24T12:30:24.230Z,0.60
2022-10-24T12:33:08.393Z,0.32
2022-10-24T12:35:41.234Z,0.65
2022-10-24T12:38:34.560Z,0.30
2022-10-24T12:41:25.619Z,0.80
2022-10-24T12:44:31.044Z,0.20
2022-10-24T12:49:32.279Z,0.40
2022-10-24T12:52:19.979Z,0.60
2022-10-24T12:54:46.742Z,0.40
2022-10-24T12:57:13.470Z,0.50
2022-10-24T12:59:55.718Z,0.80
2022-10-24T13:02:31.914Z,0.90
2022-10-24T13:05:29.685Z,0.25
2022-10-24T13:08:35.590Z,0.65
2022-10-24T13:11:27.741Z,0.32
2022-10-24T13:14:12.655Z,0.17
2022-10-24T13:17:24.118Z,0.32
2022-10-24T13:20:24.934Z,0.50
2022-10-24T13:23:01.252Z,0.20
2022-10-24T13:25:34.994Z,0.82
2022-10-24T13:28:20.307Z,0.30
2022-10-24T13:31:11.249Z,0.60
2022-10-24T13:33:43.693Z,0.30
2022-10-24T13:36:14.795Z,0.40
2022-10-24T13:38:50.672Z,0.32
2022-10-24T13:41:44.292Z,0.32
2022-10-24T13:44:36.975Z,0.40
2022-10-24T13:47:42.831Z,0.32
2022-10-24T13:50:18.683Z,0.40
2022-10-24T13:52:50.223Z,0.70
2022-10-24T13:55:41.830Z,0.80
2022-10-24T13:58:20.994Z,0.50
2022-10-24T14:00:58.051Z,0.43
2022-10-24T14:03:28.250Z,0.45
2022-10-24T14:06:01.953Z,0.60
2022-10-24T14:08:36.497Z,0.50
2022-10-24T14:13:36.714Z,0.63
2022-10-24T14:16:06.796Z,0.40
2022-10-24T14:18:36.946Z,0.55
2022-10-24T14:21:05.419Z,0.40
2022-10-24T14:23:39.808Z,0.68
2022-10-24T14:26:19.636Z,0.40
2022-10-24T14:28:51.583Z,0.60
2022-10-24T14:31:30.935Z,0.40
2022-10-24T14:33:59.068Z,0.60
2022-10-24T14:36:29.952Z,0.82
2022-10-24T14:38:59.345Z,0.68
2022-10-24T14:41:32.173Z,0.85
2022-10-24T14:43:59.725Z,1.50
2022-10-24T14:46:42.541Z,0.50
2022-10-24T14:49:33.281Z,0.50
2022-10-24T14:52:10.430Z,0.57
2022-10-24T14:54:38.361Z,0.73
2022-10-24T14:57:14.818Z,0.43
2022-10-24T14:59:45.462Z,1.20
2022-10-24T15:02:12.295Z,0.40
2022-10-24T15:04:44.342Z,0.70
2022-10-24T15:07:23.621Z,0.77
2022-10-24T15:09:59.223Z,0.85
2022-10-24T15:12:37.838Z,0.40
2022-10-24T15:15:23.465Z,0.45
2022-10-24T15:18:33.495Z,0.30
2022-10-24T15:21:04.851Z,0.73
2022-10-24T15:23:35.254Z,0.60
2022-10-24T15:26:11.314Z,0.30
2022-10-24T15:28:43.715Z,0.20
2022-10-24T15:31:16.383Z,0.50
2022-10-24T15:33:44.096Z,0.77
2022-10-24T15:36:26.313Z,0.43
2022-10-24T15:39:02.061Z,0.85
2022-10-24T15:41:29.309Z,0.63
2022-10-24T15:43:58.209Z,0.55
2022-10-24T15:46:26.262Z,0.85
2022-10-24T15:48:53.384Z,0.55
2022-10-24T15:51:23.543Z,0.60
2022-10-24T15:53:52.653Z,0.68
2022-10-24T15:56:19.633Z,0.57
2022-10-24T15:58:49.461Z,0.80
2022-10-24T16:01:48.215Z,0.50
2022-10-24T16:04:15.716Z,0.82
2022-10-24T16:06:42.805Z,0.57
2022-10-24T16:09:18.365Z,0.95
2022-10-24T16:11:45.715Z,0.50
2022-10-24T16:14:15.864Z,0.90
2022-10-24T16:16:43.120Z,1.02
2022-10-24T16:19:10.547Z,0.73
2022-10-24T16:21:39.564Z,0.57
2022-10-24T16:24:07.530Z,0.60
2022-10-24T16:26:35.280Z,1.48
2022-10-24T16:29:02.253Z,1.23
2022-10-24T16:31:29.164Z,0.88
2022-10-24T16:33:55.958Z,0.45
2022-10-24T16:36:24.778Z,0.47
2022-10-24T16:38:52.017Z,0.80
2022-10-24T16:41:22.185Z,1.20
2022-10-24T16:43:50.190Z,0.95
2022-10-24T16:46:21.740Z,1.23
2022-10-24T16:48:49.183Z,0.93
2022-10-24T16:51:23.831Z,0.60
2022-10-24T16:53:51.001Z,0.93
2022-10-24T16:56:17.884Z,0.77
2022-10-24T16:58:44.754Z,0.77
2022-10-24T17:01:14.353Z,0.88
2022-10-24T17:03:41.574Z,1.05
2022-10-24T17:06:08.828Z,0.88
2022-10-24T17:08:35.714Z,0.93
2022-10-24T17:11:02.653Z,0.77
2022-10-24T17:13:29.963Z,1.20
2022-10-24T17:15:56.953Z,0.93
2022-10-24T17:18:25.489Z,0.80
2022-10-24T17:20:58.877Z,1.05
2022-10-24T17:23:26.643Z,0.90
2022-10-24T17:25:54.423Z,0.88
2022-10-24T17:28:21.932Z,1.13
2022-10-24T17:30:48.925Z,0.88
2022-10-24T17:33:15.888Z,0.93
2022-10-24T17:35:55.936Z,1.10
2022-10-24T17:38:43.020Z,0.93
2022-10-24T17:41:27.686Z,0.80
2022-10-24T17:43:55.396Z,1.17
2022-10-24T17:46:22.480Z,0.90
2022-10-24T17:48:50.613Z,0.88
2022-10-24T17:51:21.903Z,1.10
2022-10-24T17:53:48.969Z,1.10
2022-10-24T17:56:17.558Z,0.90
2022-10-24T17:58:51.059Z,0.73
2022-10-24T18:01:18.039Z,0.85
2022-10-24T18:03:44.954Z,1.60
2022-10-24T18:06:12.727Z,1.23
2022-10-24T18:08:39.589Z,0.80
2022-10-24T18:11:10.838Z,1.02
2022-10-24T18:13:39.015Z,1.13
2022-10-24T18:16:10.833Z,2.15
2022-10-24T18:18:40.057Z,1.00
2022-10-24T18:21:22.026Z,1.10
2022-10-24T18:23:49.288Z,2.20
2022-10-24T18:26:19.544Z,1.05
2022-10-24T18:28:48.497Z,0.95
2022-10-24T18:31:17.704Z,1.33
2022-10-24T18:33:45.023Z,0.55
2022-10-24T18:36:20.742Z,1.00
2022-10-24T18:38:47.861Z,2.20
2022-10-24T18:41:38.852Z,1.17
2022-10-24T18:44:24.390Z,1.30
2022-10-24T18:46:53.232Z,1.20
2022-10-24T18:49:20.433Z,0.80
2022-10-24T18:52:11.993Z,0.90
2022-10-24T18:54:51.132Z,1.67
2022-10-24T18:57:27.889Z,0.90
2022-10-24T18:59:55.313Z,1.35
2022-10-24T19:02:34.974Z,0.63
2022-10-24T19:05:19.258Z,1.00
2022-10-24T19:07:47.814Z,0.93
2022-10-24T19:10:24.085Z,1.40
2022-10-24T19:12:52.265Z,0.90
2022-10-24T19:15:19.464Z,1.17
2022-10-24T19:17:47.493Z,0.80
2022-10-24T19:20:17.496Z,1.00
2022-10-24T19:22:44.848Z,0.77
2022-10-24T19:25:12.752Z,1.77
2022-10-24T19:27:39.916Z,1.23
2022-10-24T19:30:07.673Z,1.75
2022-10-24T19:32:34.493Z,1.00
2022-10-24T19:35:01.633Z,0.77
2022-10-24T19:37:28.436Z,0.43
2022-10-24T19:39:55.283Z,1.65
2022-10-24T19:42:22.432Z,0.57
2022-10-24T19:44:54.223Z,1.70
2022-10-24T19:47:21.431Z,0.90
2022-10-24T19:49:49.553Z,0.90
2022-10-24T19:52:16.701Z,0.65
2022-10-24T19:54:43.696Z,0.50
2022-10-24T19:57:11.404Z,0.80
2022-10-24T19:59:38.249Z,1.38
2022-10-24T20:02:05.726Z,0.98
2022-10-24T20:04:32.663Z,1.65
2022-10-24T20:06:59.408Z,0.65
2022-10-24T20:09:26.197Z,0.68
2022-10-24T20:11:52.970Z,1.38
2022-10-24T20:14:19.800Z,1.20
2022-10-24T20:16:46.628Z,0.70
2022-10-24T20:19:13.538Z,1.17
2022-10-24T20:21:40.378Z,1.35
2022-10-24T20:24:07.696Z,1.33
2022-10-24T20:26:34.668Z,1.45
2022-10-24T20:29:02.156Z,0.93
2022-10-24T20:31:31.219Z,0.93
2022-10-24T20:34:05.099Z,0.88
2022-10-24T20:36:39.303Z,1.20
2022-10-24T20:39:07.887Z,0.93
2022-10-24T20:41:35.533Z,1.27
2022-10-24T20:44:02.644Z,0.95
2022-10-24T20:46:29.653Z,1.42
2022-10-24T20:48:57.325Z,0.90
2022-10-24T20:51:24.156Z,1.33
2022-10-24T20:53:51.058Z,0.75
2022-10-24T20:56:23.539Z,2.42
2022-10-24T20:58:51.943Z,0.90
2022-10-24T21:01:29.377Z,1.52
2022-10-24T21:03:57.883Z,1.20
2022-10-24T21:06:27.382Z,1.40
2022-10-24T21:08:57.448Z,2.08
2022-10-24T21:11:27.434Z,1.58
2022-10-24T21:13:56.973Z,1.50
2022-10-24T21:16:24.610Z,1.40
2022-10-24T21:18:52.014Z,1.42
2022-10-24T21:21:20.229Z,2.30
2022-10-24T21:24:02.662Z,1.52
2022-10-24T21:26:32.659Z,1.42
2022-10-24T21:29:14.676Z,1.52
2022-10-24T21:31:46.412Z,1.42
2022-10-24T21:34:13.275Z,1.88
2022-10-24T21:36:40.056Z,1.63
2022-10-24T21:39:06.835Z,1.90
2022-10-24T21:41:33.860Z,1.58
2022-10-24T21:44:00.635Z,1.77
2022-10-24T21:46:30.687Z,1.30
2022-10-24T21:48:57.625Z,1.40
2022-10-24T21:51:28.177Z,1.77
2022-10-24T21:53:57.805Z,1.50
2022-10-24T21:56:29.450Z,1.13
2022-10-24T22:01:33.043Z,1.13
2022-10-24T22:04:00.541Z,2.45
2022-10-24T22:06:29.194Z,2.33
2022-10-24T22:08:56.676Z,1.50
2022-10-24T22:11:26.158Z,1.40
2022-10-24T22:13:53.373Z,1.40
2022-10-24T22:16:23.323Z,1.15
2022-10-24T22:18:50.960Z,1.70
2022-10-24T22:21:25.670Z,1.10
2022-10-24T22:23:53.022Z,1.30
2022-10-24T22:26:20.109Z,1.20
2022-10-24T22:28:46.895Z,1.35
2022-10-24T22:31:14.956Z,1.13
2022-10-24T22:33:42.619Z,1.77
2022-10-24T22:36:32.095Z,1.38
2022-10-24T22:38:59.223Z,1.10
2022-10-24T22:41:27.702Z,1.70
2022-10-24T22:43:54.812Z,2.58
2022-10-24T22:46:55.177Z,1.52
2022-10-24T22:49:47.202Z,1.95
2022-10-24T22:52:14.439Z,1.40
2022-10-24T22:54:42.224Z,2.10
2022-10-24T22:57:09.792Z,1.33
2022-10-24T22:59:37.087Z,1.50
2022-10-24T23:02:16.374Z,2.00
2022-10-24T23:04:58.535Z,2.55
2022-10-24T23:07:53.115Z,2.58
2022-10-24T23:10:22.845Z,1.90
2022-10-24T23:12:50.763Z,2.28
2022-10-24T23:15:19.452Z,2.78
2022-10-24T23:17:48.076Z,3.22
2022-10-24T23:20:27.064Z,3.15
2022-10-24T23:23:09.019Z,3.75
2022-10-24T23:25:46.892Z,4.07
2022-10-24T23:28:30.336Z,4.32
2022-10-24T23:30:57.452Z,4.63
2022-10-24T23:33:29.406Z,4.40
2022-10-24T23:35:59.185Z,4.53
2022-10-24T23:38:27.018Z,4.50
2022-10-24T23:40:54.264Z,4.22
2022-10-24T23:43:21.978Z,5.15
2022-10-24T23:46:25.294Z,5.80
2022-10-24T23:49:21.026Z,4.05
2022-10-24T23:52:18.332Z,4.80
2022-10-24T23:54:45.496Z,4.78
2022-10-24T23:57:16.154Z,5.65
2022-10-24T23:59:44.331Z,5.82
